Time;durP1;ratioP1;P1;durP2;ratioP2;P2;SDS_P1;SDS_P2;PMS_P1;PMS_P2;Temp;Humidity;BMP_temperature;BMP_pressure;BME280_temperature;BME280_humidity;BME280_pressure;Samples;Min_cycle;Max_cycle;Signal;HPM_P1;HPM_P2
2022/03/15 00:01:12;;;;;;;14.93;6.93;;;4.80;99.90;;;;;;6284857;22;20023;-94
2022/03/15 00:03:38;;;;;;;13.82;6.18;;;4.70;99.90;;;;;;6310916;22;20019;-96
2022/03/15 00:06:04;;;;;;;14.57;6.27;;;4.60;99.90;;;;;;6284490;22;20023;-94
2022/03/15 00:08:31;;;;;;;13.77;6.65;;;4.60;99.90;;;;;;6282567;22;20015;-96
2022/03/15 00:11:02;;;;;;;16.70;6.65;;;4.50;99.90;;;;;;6282062;22;20023;-95
2022/03/15 00:13:28;;;;;;;14.70;5.80;;;4.50;99.90;;;;;;6281966;22;20019;-94
2022/03/15 00:15:55;;;;;;;12.35;5.95;;;4.50;99.90;;;;;;6281983;22;20015;-95
2022/03/15 00:18:20;;;;;;;13.75;6.43;;;4.50;99.90;;;;;;6281797;22;20420;-94
2022/03/15 00:20:46;;;;;;;17.03;6.57;;;4.40;99.90;;;;;;6281906;22;20026;-96
2022/03/15 00:23:12;;;;;;;11.50;6.27;;;4.40;99.90;;;;;;6282062;22;20449;-96
2022/03/15 00:25:38;;;;;;;19.53;7.00;;;4.40;99.90;;;;;;6284105;22;20148;-91
2022/03/15 00:28:04;;;;;;;14.67;5.97;;;4.40;99.90;;;;;;6283556;22;20015;-95
2022/03/15 00:30:30;;;;;;;13.10;6.87;;;4.30;99.90;;;;;;6293431;22;20019;-95
2022/03/15 00:32:55;;;;;;;14.97;6.33;;;4.30;99.90;;;;;;6297700;22;20045;-96
2022/03/15 00:35:25;;;;;;;12.50;5.90;;;4.30;99.90;;;;;;6284208;22;20019;-93
2022/03/15 00:37:53;;;;;;;13.00;5.72;;;4.30;99.90;;;;;;6313355;22;20019;-93
2022/03/15 00:40:22;;;;;;;14.98;6.75;;;4.20;99.90;;;;;;6295175;22;20026;-92
2022/03/15 00:42:53;;;;;;;16.10;7.07;;;4.20;99.90;;;;;;6288567;22;20069;-95
2022/03/15 00:45:23;;;;;;;16.77;6.15;;;4.20;99.90;;;;;;6283542;22;20440;-92
2022/03/15 00:47:53;;;;;;;15.45;6.00;;;4.20;99.90;;;;;;6284571;22;20015;-93
2022/03/15 00:50:20;;;;;;;14.95;6.03;;;4.20;99.90;;;;;;6283771;22;20015;-96
2022/03/15 00:52:45;;;;;;;;;;;4.20;99.90;;;;;;6289542;22;20015;-96
2022/03/15 00:55:11;;;;;;;14.57;6.72;;;4.10;99.90;;;;;;6281750;22;19976;-96
2022/03/15 00:57:37;;;;;;;13.37;7.17;;;4.10;99.90;;;;;;6285603;22;20514;-96
2022/03/15 01:00:08;;;;;;;13.65;6.90;;;4.00;99.90;;;;;;6307112;22;20468;-94
2022/03/15 01:02:35;;;;;;;16.63;7.95;;;4.00;99.90;;;;;;6281727;22;20091;-94
2022/03/15 01:05:01;;;;;;;18.17;8.68;;;4.00;99.90;;;;;;6281848;22;20090;-96
2022/03/15 01:07:27;;;;;;;16.92;8.40;;;4.00;99.90;;;;;;6282663;22;20463;-95
2022/03/15 01:09:53;;;;;;;21.50;9.40;;;4.10;99.90;;;;;;6283157;22;20103;-95
2022/03/15 01:12:19;;;;;;;20.33;11.27;;;4.10;99.90;;;;;;6285691;22;20278;-96
2022/03/15 01:14:45;;;;;;;24.67;10.45;;;4.20;99.90;;;;;;6284552;22;20250;-95
2022/03/15 01:17:10;;;;;;;24.47;10.57;;;4.20;99.90;;;;;;6284154;22;20511;-96
2022/03/15 01:22:15;;;;;;;24.73;12.95;;;4.40;99.90;;;;;;6310415;22;20025;-96
2022/03/15 01:35:04;;;;;;;23.17;9.95;;;4.50;99.90;;;;;;6311875;22;20019;-96
2022/03/15 01:37:30;;;;;;;20.23;9.25;;;4.50;99.90;;;;;;6265979;22;20391;-96
2022/03/15 01:39:56;;;;;;;20.73;9.80;;;4.40;99.90;;;;;;6257735;22;20015;-94
2022/03/15 01:42:21;;;;;;;16.83;7.97;;;4.40;99.90;;;;;;6255537;22;20058;-95
2022/03/15 01:44:49;;;;;;;17.30;9.07;;;4.40;99.90;;;;;;6281120;22;20319;-96
2022/03/15 01:47:15;;;;;;;17.55;7.93;;;4.40;99.90;;;;;;6255338;22;20019;-94
2022/03/15 01:49:42;;;;;;;18.48;8.15;;;4.40;99.90;;;;;;6255437;22;20015;-94
2022/03/15 01:52:15;;;;;;;17.05;8.32;;;4.30;99.90;;;;;;6255341;22;20019;-94
2022/03/15 01:54:41;;;;;;;16.70;7.85;;;4.30;99.90;;;;;;6256579;22;20016;-95
2022/03/15 01:57:09;;;;;;;17.38;7.97;;;4.30;99.90;;;;;;6256849;22;20390;-95
2022/03/15 01:59:36;;;;;;;17.25;7.88;;;4.30;99.90;;;;;;6255452;22;20021;-95
2022/03/15 02:04:37;;;;;;;14.02;7.35;;;4.30;99.90;;;;;;6401985;22;20384;-93
2022/03/15 02:07:09;;;;;;;18.80;8.48;;;4.20;99.90;;;;;;6387379;22;20074;-91
2022/03/15 02:09:35;;;;;;;15.70;7.97;;;4.20;99.90;;;;;;6379354;22;20018;-93
2022/03/15 02:12:02;;;;;;;15.05;7.25;;;4.10;99.90;;;;;;6350644;22;20047;-93
2022/03/15 02:14:28;;;;;;;16.45;8.82;;;4.10;99.90;;;;;;6350648;22;20449;-96
2022/03/15 02:16:55;;;;;;;15.52;7.50;;;4.00;99.90;;;;;;6350794;22;20082;-95
2022/03/15 02:19:30;;;;;;;16.67;8.23;;;4.00;99.90;;;;;;6351370;22;20025;-93
2022/03/15 02:21:59;;;;;;;17.08;8.02;;;4.00;99.90;;;;;;6350784;22;20018;-96
2022/03/15 02:24:25;;;;;;;16.90;7.43;;;3.90;99.90;;;;;;6350484;22;20026;-95
2022/03/15 02:26:51;;;;;;;17.00;9.10;;;3.80;99.90;;;;;;6377205;22;20132;-92
2022/03/15 02:29:21;;;;;;;17.93;8.90;;;3.80;99.90;;;;;;6350331;22;20013;-93
2022/03/15 02:31:48;;;;;;;16.63;8.48;;;3.70;99.90;;;;;;6350183;22;20018;-93
2022/03/15 02:34:14;;;;;;;15.77;8.45;;;3.70;99.90;;;;;;6350590;22;20014;-92
2022/03/15 02:36:40;;;;;;;16.95;7.95;;;3.70;99.90;;;;;;6349988;22;20497;-95
2022/03/15 02:39:06;;;;;;;18.30;8.45;;;3.70;99.90;;;;;;6350136;22;20025;-94
2022/03/15 02:41:32;;;;;;;16.33;8.37;;;3.70;99.90;;;;;;6376699;22;20025;-96
2022/03/15 02:43:57;;;;;;;18.37;8.97;;;3.70;99.90;;;;;;6350586;22;20018;-96
2022/03/15 02:46:31;;;;;;;19.42;8.88;;;3.70;99.90;;;;;;6350226;22;20053;-96
2022/03/15 02:48:57;;;;;;;17.58;8.70;;;3.70;99.90;;;;;;6350765;22;20140;-95
2022/03/15 02:51:24;;;;;;;20.40;9.65;;;3.80;99.90;;;;;;6376596;22;20046;-96
2022/03/15 02:53:52;;;;;;;16.33;8.30;;;3.80;99.90;;;;;;6350706;22;20090;-96
2022/03/15 02:56:19;;;;;;;18.20;9.40;;;3.90;99.90;;;;;;6350361;22;20009;-93
2022/03/15 02:58:45;;;;;;;14.30;9.10;;;3.90;99.90;;;;;;6350297;22;20101;-92
2022/03/15 03:01:10;;;;;;;15.53;8.80;;;4.00;99.90;;;;;;6350549;22;20052;-94
2022/03/15 03:03:37;;;;;;;16.97;8.80;;;4.00;99.90;;;;;;6350270;22;20014;-94
2022/03/15 03:06:04;;;;;;;19.00;9.88;;;4.00;99.90;;;;;;6350105;22;20030;-96
2022/03/15 03:08:30;;;;;;;18.05;8.98;;;4.10;99.90;;;;;;6350323;22;20045;-96
2022/03/15 03:10:57;;;;;;;15.40;9.35;;;4.20;99.90;;;;;;6350241;22;20097;-96
2022/03/15 03:13:26;;;;;;;14.70;7.95;;;4.20;99.90;;;;;;6349973;22;20022;-93
2022/03/15 03:15:57;;;;;;;13.40;8.25;;;4.20;99.90;;;;;;6349783;22;20085;-96
2022/03/15 03:18:25;;;;;;;17.80;8.77;;;4.20;99.90;;;;;;6350215;22;20022;-92
2022/03/15 03:20:51;;;;;;;18.42;10.60;;;4.20;99.90;;;;;;6350034;22;20056;-96
2022/03/15 03:23:17;;;;;;;20.37;10.50;;;4.20;99.90;;;;;;6349465;22;20022;-95
2022/03/15 03:25:43;;;;;;;19.15;11.20;;;4.20;99.90;;;;;;6349832;22;20021;-94
2022/03/15 03:28:12;;;;;;;18.08;10.48;;;4.30;99.90;;;;;;6350025;22;20018;-94
2022/03/15 03:30:37;;;;;;;17.33;10.55;;;4.40;99.90;;;;;;6349928;22;20022;-93
2022/03/15 03:33:04;;;;;;;22.23;11.73;;;4.30;99.90;;;;;;6349828;22;20022;-96
2022/03/15 03:35:30;;;;;;;19.30;11.38;;;4.40;99.90;;;;;;6350064;22;20443;-96
2022/03/15 03:37:56;;;;;;;25.13;12.83;;;4.40;99.90;;;;;;6349884;22;20057;-95
2022/03/15 03:40:22;;;;;;;21.98;12.57;;;4.40;99.90;;;;;;6350090;22;20041;-96
2022/03/15 03:42:48;;;;;;;23.30;13.45;;;4.40;99.90;;;;;;6376302;22;20472;-95
2022/03/15 03:45:13;;;;;;;17.47;12.53;;;4.40;99.90;;;;;;6349836;22;20022;-95
2022/03/15 03:47:39;;;;;;;21.43;12.47;;;4.40;99.90;;;;;;6349963;22;20017;-95
2022/03/15 03:50:08;;;;;;;23.27;13.43;;;4.50;99.90;;;;;;6349828;22;20021;-95
2022/03/15 03:52:34;;;;;;;16.52;11.95;;;4.50;99.90;;;;;;6349291;22;20154;-94
2022/03/15 03:55:00;;;;;;;19.50;11.43;;;4.50;99.90;;;;;;6349735;22;20429;-94
2022/03/15 03:57:26;;;;;;;17.37;11.30;;;4.50;99.90;;;;;;6349974;22;20080;-94
2022/03/15 03:59:52;;;;;;;19.77;11.57;;;4.50;99.90;;;;;;6349805;22;20017;-92
2022/03/15 04:02:17;;;;;;;19.13;12.03;;;4.40;99.90;;;;;;6349649;22;20020;-95
2022/03/15 04:04:44;;;;;;;20.50;11.77;;;4.40;99.90;;;;;;6349656;22;20074;-94
2022/03/15 04:07:11;;;;;;;19.17;10.55;;;4.40;99.90;;;;;;6349834;22;20021;-96
2022/03/15 04:09:38;;;;;;;15.05;9.52;;;4.40;99.90;;;;;;6349622;22;20018;-94
2022/03/15 04:12:05;;;;;;;15.35;9.70;;;4.30;99.90;;;;;;6349327;22;20378;-95
2022/03/15 04:14:32;;;;;;;14.18;9.25;;;4.30;99.90;;;;;;6349666;22;20018;-96
2022/03/15 04:16:57;;;;;;;16.70;10.40;;;4.20;99.90;;;;;;6349498;22;20021;-93
2022/03/15 04:19:23;;;;;;;17.70;10.10;;;4.20;99.90;;;;;;6350074;22;20014;-94
2022/03/15 04:21:49;;;;;;;14.60;9.77;;;4.20;99.90;;;;;;6349435;22;20014;-95
2022/03/15 04:24:17;;;;;;;16.50;11.57;;;4.20;99.90;;;;;;6349457;22;20025;-96
2022/03/15 04:26:44;;;;;;;16.73;10.40;;;4.20;99.90;;;;;;6349728;22;20018;-96
2022/03/15 04:29:09;;;;;;;16.70;10.57;;;4.30;99.90;;;;;;6349316;22;20020;-95
2022/03/15 04:31:35;;;;;;;17.03;11.13;;;4.30;99.90;;;;;;6349306;22;20021;-95
2022/03/15 04:34:01;;;;;;;17.60;11.87;;;4.30;99.90;;;;;;6349368;22;20022;-94
2022/03/15 04:36:27;;;;;;;17.03;10.53;;;4.30;99.90;;;;;;6352892;22;20014;-96
2022/03/15 04:38:53;;;;;;;16.43;11.37;;;4.40;99.90;;;;;;6357766;22;20450;-96
2022/03/15 04:41:19;;;;;;;15.18;10.70;;;4.30;99.90;;;;;;6349238;22;20025;-95
2022/03/15 04:43:45;;;;;;;20.87;12.47;;;4.40;99.90;;;;;;6375582;22;20022;-96
2022/03/15 04:46:11;;;;;;;20.10;10.87;;;4.40;99.90;;;;;;6375890;22;20049;-93
2022/03/15 04:48:37;;;;;;;18.50;10.70;;;4.50;99.90;;;;;;6349639;22;20331;-95
2022/03/15 04:51:03;;;;;;;22.47;12.00;;;4.50;99.90;;;;;;6349956;22;20061;-96
2022/03/15 04:53:29;;;;;;;15.83;10.97;;;4.50;99.90;;;;;;6355081;22;20024;-92
2022/03/15 04:55:55;;;;;;;21.43;11.57;;;4.50;99.90;;;;;;6360767;22;20090;-95
2022/03/15 04:58:20;;;;;;;19.27;11.40;;;4.50;99.90;;;;;;6354515;22;20329;-96
2022/03/15 05:00:46;;;;;;;21.10;12.47;;;4.50;99.90;;;;;;6376454;22;20240;-89
2022/03/15 05:03:16;;;;;;;19.53;12.13;;;4.50;99.90;;;;;;6373370;22;20026;-96
2022/03/15 05:05:43;;;;;;;19.17;12.00;;;4.50;99.90;;;;;;6361406;22;20018;-96
2022/03/15 05:08:09;;;;;;;21.88;13.27;;;4.60;99.90;;;;;;6352261;22;20010;-96
2022/03/15 05:13:20;;;;;;;20.05;12.40;;;4.60;99.90;;;;;;6378129;22;20024;-96
2022/03/15 05:15:47;;;;;;;18.50;12.23;;;4.70;99.90;;;;;;6355645;22;20181;-96
2022/03/15 05:18:13;;;;;;;20.23;13.35;;;4.60;99.90;;;;;;6380568;22;20018;-93
2022/03/15 05:21:12;;;;;;;21.13;13.40;;;4.70;99.90;;;;;;6353923;22;20018;-94
2022/03/15 05:23:38;;;;;;;25.02;14.20;;;4.70;99.90;;;;;;6348984;22;20057;-95
2022/03/15 05:26:04;;;;;;;23.40;14.33;;;4.70;99.90;;;;;;6348834;22;20010;-95
2022/03/15 05:28:30;;;;;;;25.30;13.83;;;4.70;99.90;;;;;;6347905;22;20017;-96
2022/03/15 05:30:55;;;;;;;23.10;15.03;;;4.80;99.90;;;;;;6352206;22;20054;-96
2022/03/15 05:33:21;;;;;;;26.27;14.87;;;4.80;99.90;;;;;;6365436;22;20450;-96
2022/03/15 05:42:34;;;;;;;23.40;14.52;;;5.00;99.90;;;;;;6376219;22;20396;-91
2022/03/15 05:45:03;;;;;;;28.65;15.93;;;5.00;99.90;;;;;;6362194;22;20022;-96
2022/03/15 05:47:28;;;;;;;23.60;15.15;;;5.00;99.90;;;;;;6341210;22;20028;-96
2022/03/15 05:50:35;;;;;;;29.17;15.83;;;5.10;99.90;;;;;;6352716;22;20022;-96
2022/03/15 05:57:01;;;;;;;28.13;15.65;;;5.10;99.90;;;;;;6395929;22;20074;-96
2022/03/15 05:59:31;;;;;;;25.73;15.38;;;5.10;99.90;;;;;;6364419;22;20002;-96
2022/03/15 06:01:57;;;;;;;28.85;16.10;;;5.10;99.90;;;;;;6352499;22;20052;-93
2022/03/15 06:05:04;;;;;;;28.27;16.13;;;5.10;99.90;;;;;;6347566;22;20021;-96
2022/03/15 06:20:48;;;;;;;30.83;15.85;;;5.30;99.90;;;;;;6363375;22;20026;-96
2022/03/15 06:23:17;;;;;;;29.80;15.83;;;5.30;99.90;;;;;;6318027;22;20342;-91
2022/03/15 06:25:42;;;;;;;27.25;16.13;;;5.30;99.90;;;;;;6343602;22;20022;-91
2022/03/15 06:28:08;;;;;;;32.87;17.73;;;5.40;99.90;;;;;;6344077;22;20107;-96
2022/03/15 06:30:41;;;;;;;30.73;17.23;;;5.30;99.90;;;;;;6345677;22;20022;-94
2022/03/15 06:33:07;;;;;;;27.55;16.45;;;5.40;99.90;;;;;;6319296;22;20459;-96
2022/03/15 06:35:33;;;;;;;30.00;18.90;;;5.40;99.90;;;;;;6321151;22;20025;-95
2022/03/15 06:38:01;;;;;;;33.78;20.08;;;5.50;99.90;;;;;;6345972;22;20374;-90
2022/03/15 06:40:27;;;;;;;34.65;19.08;;;5.50;99.90;;;;;;6343150;22;20026;-91
2022/03/15 06:42:54;;;;;;;34.15;18.90;;;5.50;99.90;;;;;;6342967;22;20062;-91
2022/03/15 06:45:23;;;;;;;37.17;20.27;;;5.60;99.90;;;;;;6309859;22;20029;-94
2022/03/15 06:48:01;;;;;;;36.40;20.30;;;5.60;99.90;;;;;;6317416;22;20022;-94
2022/03/15 06:50:30;;;;;;;38.47;20.20;;;5.60;99.90;;;;;;6318022;22;20026;-95
2022/03/15 06:52:56;;;;;;;33.87;19.70;;;5.60;99.90;;;;;;6346455;22;20022;-96
2022/03/15 06:55:22;;;;;;;38.63;20.80;;;5.70;99.90;;;;;;6345871;22;20057;-96
2022/03/15 06:57:48;;;;;;;34.73;20.93;;;5.60;99.90;;;;;;6345157;22;20006;-93
2022/03/15 07:00:15;;;;;;;38.57;21.07;;;5.70;99.90;;;;;;6318811;22;20079;-91
2022/03/15 07:05:16;;;;;;;36.15;19.73;;;5.70;99.90;;;;;;6400554;22;20029;-92
2022/03/15 07:07:42;;;;;;;37.03;21.90;;;5.80;99.90;;;;;;6349683;22;20018;-94
2022/03/15 07:10:46;;;;;;;;;;;;;;;;;;;;;
2022/03/15 07:13:15;;;;;;;39.60;21.98;;;5.80;99.90;;;;;;6376091;22;20028;-92
2022/03/15 07:15:41;;;;;;;41.85;21.85;;;5.90;99.90;;;;;;6348259;22;20014;-91
2022/03/15 07:18:09;;;;;;;40.83;23.00;;;5.90;99.90;;;;;;6350297;22;20086;-93
2022/03/15 07:20:35;;;;;;;38.25;22.10;;;5.90;99.90;;;;;;6349310;22;20018;-90
2022/03/15 07:23:01;;;;;;;43.40;24.35;;;6.00;99.90;;;;;;6350223;22;20450;-90
2022/03/15 07:25:32;;;;;;;45.97;25.93;;;6.00;99.90;;;;;;6349810;22;20143;-91
2022/03/15 07:27:58;;;;;;;40.92;24.83;;;6.00;99.90;;;;;;6349934;22;20017;-90
2022/03/15 07:30:46;;;;;;;43.20;25.67;;;6.00;99.90;;;;;;6350177;22;20017;-92
2022/03/15 07:33:14;;;;;;;37.50;22.77;;;6.10;99.90;;;;;;6350253;22;20493;-92
2022/03/15 07:36:08;;;;;;;41.40;24.43;;;6.10;99.90;;;;;;6350265;22;20014;-94
2022/03/15 07:38:36;;;;;;;48.58;26.73;;;6.20;99.90;;;;;;6348666;22;20017;-92
2022/03/15 07:41:02;;;;;;;45.73;26.60;;;6.20;99.90;;;;;;6350845;22;20053;-89
2022/03/15 07:43:28;;;;;;;41.93;25.60;;;6.20;99.90;;;;;;6350504;22;20018;-92
2022/03/15 07:45:57;;;;;;;52.25;27.55;;;6.20;99.90;;;;;;6355312;22;20109;-90
2022/03/15 08:03:54;;;;;;;55.05;30.70;;;6.40;99.90;;;;;;6372288;22;20019;-95
2022/03/15 08:06:20;;;;;;;53.93;30.87;;;6.40;99.90;;;;;;6316558;22;20029;-95
2022/03/15 08:08:46;;;;;;;55.40;32.17;;;6.40;99.90;;;;;;6318800;22;20347;-92
2022/03/15 08:11:12;;;;;;;54.58;31.45;;;6.50;99.90;;;;;;6318432;22;20023;-93
2022/03/15 08:13:38;;;;;;;61.07;31.03;;;6.40;99.90;;;;;;6317918;22;20018;-95
2022/03/15 08:16:05;;;;;;;53.63;32.03;;;6.50;99.90;;;;;;6318697;22;20026;-93
2022/03/15 08:18:32;;;;;;;52.60;31.35;;;6.50;99.90;;;;;;6293620;22;20018;-96
2022/03/15 08:20:59;;;;;;;50.08;31.45;;;6.50;99.90;;;;;;6318652;22;20011;-91
2022/03/15 08:23:27;;;;;;;56.80;32.25;;;6.50;99.90;;;;;;6344134;22;20021;-91
2022/03/15 08:25:55;;;;;;;56.83;32.35;;;6.60;99.90;;;;;;6343844;22;20064;-92
2022/03/15 08:28:23;;;;;;;52.85;32.85;;;6.60;99.90;;;;;;6343683;22;20089;-91
2022/03/15 08:30:49;;;;;;;59.47;33.50;;;6.70;99.90;;;;;;6317682;22;20079;-91
2022/03/15 08:33:14;;;;;;;58.40;35.47;;;6.70;99.90;;;;;;6318087;22;20022;-91
2022/03/15 08:35:52;;;;;;;65.40;36.27;;;6.80;99.90;;;;;;6317149;22;20018;-95
2022/03/15 08:48:55;;;;;;;64.35;35.67;;;6.90;99.90;;;;;;6372164;22;20019;-96
2022/03/15 08:59:15;;;;;;;62.55;37.30;;;7.10;99.90;;;;;;6368951;22;20014;-96
2022/03/15 09:01:42;;;;;;;58.22;35.55;;;7.10;99.90;;;;;;6327624;22;20015;-96
2022/03/15 09:04:08;;;;;;;63.08;36.40;;;7.20;99.90;;;;;;6319631;22;20022;-94
2022/03/15 09:06:34;;;;;;;61.40;36.50;;;7.20;99.90;;;;;;6316454;22;20014;-95
2022/03/15 09:09:00;;;;;;;65.05;38.25;;;7.30;99.90;;;;;;6343722;22;20079;-95
2022/03/15 09:11:32;;;;;;;64.13;36.37;;;7.30;99.90;;;;;;6317542;22;20053;-95
2022/03/15 09:13:58;;;;;;;62.80;36.00;;;7.30;99.90;;;;;;6317492;22;20022;-95
2022/03/15 09:16:24;;;;;;;57.47;34.33;;;7.30;99.90;;;;;;6317645;22;20021;-95
2022/03/15 09:18:50;;;;;;;64.10;35.30;;;7.30;99.90;;;;;;6317739;22;20087;-94
2022/03/15 09:21:19;;;;;;;59.47;36.23;;;7.40;99.90;;;;;;6317738;22;20019;-95
2022/03/15 09:23:45;;;;;;;62.85;35.03;;;7.40;99.90;;;;;;6317877;22;20294;-95
2022/03/15 09:26:20;;;;;;;58.60;34.80;;;7.50;99.90;;;;;;6344810;22;20018;-96
2022/03/15 09:28:45;;;;;;;58.00;34.97;;;7.40;99.90;;;;;;6318001;22;20041;-95
2022/03/15 09:31:11;;;;;;;57.73;34.40;;;7.50;99.90;;;;;;6317797;22;20018;-96
2022/03/15 09:33:37;;;;;;;57.60;33.43;;;7.50;99.90;;;;;;6318280;22;20022;-96
2022/03/15 09:36:25;;;;;;;60.60;35.33;;;7.50;99.90;;;;;;6318226;22;20018;-96
2022/03/15 09:39:18;;;;;;;58.90;34.17;;;7.60;99.90;;;;;;6318592;22;20075;-95
2022/03/15 09:41:50;;;;;;;55.97;35.08;;;7.60;99.90;;;;;;6318256;22;20349;-96
2022/03/15 09:44:17;;;;;;;53.28;33.13;;;7.70;99.90;;;;;;6345335;22;20106;-96
2022/03/15 09:46:52;;;;;;;50.00;34.15;;;7.80;99.90;;;;;;6343997;22;20018;-95
2022/03/15 09:49:19;;;;;;;49.85;32.53;;;7.80;99.90;;;;;;6318952;22;20083;-93
2022/03/15 09:51:47;;;;;;;48.42;32.17;;;7.90;99.90;;;;;;6347785;22;20019;-96
2022/03/15 09:54:17;;;;;;;47.80;32.90;;;7.90;99.90;;;;;;6319976;22;20018;-95
2022/03/15 09:56:43;;;;;;;50.65;31.98;;;8.00;99.90;;;;;;6319062;22;20022;-96
2022/03/15 09:59:16;;;;;;;47.80;31.10;;;8.00;99.90;;;;;;6345987;22;20101;-96
2022/03/15 10:01:43;;;;;;;48.05;31.90;;;8.00;99.90;;;;;;6318119;22;20030;-95
2022/03/15 10:04:09;;;;;;;48.13;31.80;;;8.10;99.90;;;;;;6346435;22;20073;-96
2022/03/15 10:06:38;;;;;;;46.27;31.57;;;8.20;99.90;;;;;;6322058;22;20455;-95
2022/03/15 10:09:08;;;;;;;42.38;30.08;;;8.20;99.90;;;;;;6350657;22;20245;-96
2022/03/15 10:11:35;;;;;;;44.72;30.27;;;8.30;99.90;;;;;;6350913;22;20155;-96
2022/03/15 10:14:01;;;;;;;;;;;8.30;99.90;;;;;;6326447;22;20029;-96
2022/03/15 10:16:31;;;;;;;40.95;29.20;;;8.30;99.90;;;;;;6326359;22;19914;-96
2022/03/15 10:18:58;;;;;;;43.92;28.85;;;8.40;99.90;;;;;;6325721;22;20018;-96
2022/03/15 10:21:38;;;;;;;42.03;28.38;;;8.40;99.90;;;;;;6326544;22;20054;-96
2022/03/15 10:24:27;;;;;;;43.20;28.25;;;8.50;99.90;;;;;;6355664;22;20014;-95
2022/03/15 10:26:57;;;;;;;40.00;27.23;;;8.70;99.90;;;;;;6326101;22;20092;-95
2022/03/15 10:29:25;;;;;;;36.28;25.92;;;8.70;99.90;;;;;;6375895;22;20014;-95
2022/03/15 10:31:51;;;;;;;40.83;27.25;;;8.80;99.90;;;;;;6321441;22;20055;-95
2022/03/15 10:34:19;;;;;;;40.10;27.08;;;8.80;99.90;;;;;;6325931;22;20332;-91
2022/03/15 10:40:51;;;;;;;38.25;26.50;;;8.90;99.90;;;;;;6400046;22;20000;-88
2022/03/15 10:43:23;;;;;;;39.15;25.83;;;8.90;99.90;;;;;;6338714;22;20022;-92
2022/03/15 10:45:56;;;;;;;36.72;26.20;;;8.90;99.90;;;;;;6369860;22;20040;-90
2022/03/15 10:48:30;;;;;;;35.92;26.05;;;8.90;99.90;;;;;;6345861;22;20013;-93
2022/03/15 10:51:05;;;;;;;38.33;24.85;;;9.00;99.90;;;;;;6338200;22;20069;-96
2022/03/15 10:53:47;;;;;;;39.08;27.15;;;9.00;99.90;;;;;;6352683;22;20018;-94
2022/03/15 10:56:21;;;;;;;41.03;26.50;;;9.10;99.90;;;;;;6348977;22;20022;-96
2022/03/15 10:58:48;;;;;;;36.28;26.38;;;9.20;99.90;;;;;;6315762;22;20356;-94
2022/03/15 11:01:25;;;;;;;35.83;25.48;;;9.20;99.90;;;;;;6318003;22;20022;-96
2022/03/15 11:04:00;;;;;;;33.57;23.50;;;9.20;99.90;;;;;;6289597;22;20026;-96
2022/03/15 11:06:30;;;;;;;34.65;23.73;;;9.30;99.90;;;;;;6290032;22;20030;-94
2022/03/15 11:09:00;;;;;;;31.25;23.08;;;9.30;99.90;;;;;;6291373;22;20447;-96
2022/03/15 11:11:26;;;;;;;34.05;23.83;;;9.30;99.90;;;;;;6294753;22;20067;-96
2022/03/15 11:14:04;;;;;;;37.72;24.75;;;9.30;99.90;;;;;;6293705;22;20023;-96
2022/03/15 11:16:34;;;;;;;30.88;23.15;;;9.30;99.90;;;;;;6294318;22;20164;-95
2022/03/15 11:19:02;;;;;;;35.22;24.17;;;9.30;99.90;;;;;;6322522;22;20018;-96
2022/03/15 11:21:33;;;;;;;34.45;24.10;;;9.30;99.90;;;;;;6300363;22;20018;-93
2022/03/15 11:24:01;;;;;;;39.10;24.48;;;9.30;99.90;;;;;;6296718;22;20023;-95
2022/03/15 11:26:33;;;;;;;34.75;25.67;;;9.30;99.90;;;;;;6292416;22;20073;-95
2022/03/15 11:29:02;;;;;;;35.25;23.95;;;9.30;99.90;;;;;;6290114;22;20478;-94
2022/03/15 11:31:30;;;;;;;31.23;21.58;;;9.30;99.90;;;;;;6294769;22;20029;-94
2022/03/15 11:34:05;;;;;;;;;;;9.30;99.90;;;;;;6345841;22;20080;-95
2022/03/15 11:36:32;;;;;;;32.35;20.98;;;9.30;99.90;;;;;;6289044;22;19915;-96
2022/03/15 11:38:59;;;;;;;29.85;19.70;;;9.20;99.90;;;;;;6290287;22;20097;-95
2022/03/15 11:41:26;;;;;;;31.08;20.50;;;9.20;99.90;;;;;;6288254;22;20042;-92
2022/03/15 11:44:27;;;;;;;31.60;21.92;;;9.20;99.90;;;;;;6288503;22;20339;-96
2022/03/15 11:47:15;;;;;;;32.22;24.05;;;9.10;99.90;;;;;;6313085;22;20015;-92
2022/03/15 11:50:02;;;;;;;36.90;23.67;;;9.10;99.90;;;;;;6287149;22;20109;-94
2022/03/15 11:52:45;;;;;;;39.13;25.25;;;9.00;99.90;;;;;;6286783;22;20336;-95
2022/03/15 11:55:16;;;;;;;36.80;25.67;;;9.00;99.90;;;;;;6287620;22;20018;-90
2022/03/15 11:57:51;;;;;;;38.40;27.33;;;9.00;99.90;;;;;;6292752;22;20026;-94
2022/03/15 12:00:38;;;;;;;39.35;27.95;;;9.00;99.90;;;;;;6318426;22;20015;-94
2022/03/15 12:03:06;;;;;;;43.83;28.20;;;9.00;99.90;;;;;;6318441;22;20157;-94
2022/03/15 12:05:45;;;;;;;42.58;28.58;;;8.90;99.90;;;;;;6344378;22;20046;-92
2022/03/15 12:08:16;;;;;;;40.47;28.60;;;8.90;99.90;;;;;;6318374;22;20105;-92
2022/03/15 12:11:01;;;;;;;43.33;28.40;;;8.90;99.90;;;;;;6318202;22;20443;-91
2022/03/15 12:19:10;;;;;;;45.38;28.92;;;9.00;99.90;;;;;;6339057;22;20095;-95
2022/03/15 12:21:50;;;;;;;40.30;27.55;;;9.00;99.90;;;;;;6287398;22;20037;-92
2022/03/15 12:24:30;;;;;;;36.38;23.77;;;9.00;99.90;;;;;;6287708;22;20018;-96
2022/03/15 12:26:59;;;;;;;34.03;24.27;;;9.10;99.90;;;;;;6287947;22;20014;-95
2022/03/15 12:29:27;;;;;;;29.77;19.35;;;9.10;99.90;;;;;;6313139;22;20015;-95
2022/03/15 12:31:53;;;;;;;32.58;21.75;;;9.10;99.90;;;;;;6313756;22;20022;-94
2022/03/15 12:34:20;;;;;;;30.17;19.95;;;9.10;99.90;;;;;;6312877;22;20027;-94
2022/03/15 12:36:55;;;;;;;29.27;19.45;;;9.10;99.90;;;;;;6287191;22;20098;-95
2022/03/15 12:39:26;;;;;;;30.92;20.65;;;9.10;99.90;;;;;;6287365;22;20023;-94
2022/03/15 12:42:09;;;;;;;30.15;19.55;;;9.10;99.90;;;;;;6312802;22;20058;-95
2022/03/15 12:44:39;;;;;;;33.72;20.15;;;9.10;99.90;;;;;;6287298;22;20019;-94
2022/03/15 12:47:07;;;;;;;31.17;20.25;;;9.20;99.90;;;;;;6287116;22;20019;-93
2022/03/15 12:49:33;;;;;;;30.58;19.63;;;9.20;99.90;;;;;;6286802;22;20084;-92
2022/03/15 12:52:12;;;;;;;29.83;19.40;;;9.20;99.90;;;;;;6338830;22;20088;-91
2022/03/15 12:54:39;;;;;;;32.63;19.05;;;9.30;99.90;;;;;;6286291;22;20019;-94
2022/03/15 12:57:13;;;;;;;;;;;9.40;99.90;;;;;;6287350;22;20018;-94
2022/03/15 12:59:39;;;;;;;27.80;17.73;;;9.50;99.90;;;;;;6286972;22;19918;-96
2022/03/15 13:02:06;;;;;;;26.98;17.10;;;9.60;99.90;;;;;;6287359;22;20019;-93
2022/03/15 13:04:34;;;;;;;27.63;17.50;;;9.70;99.90;;;;;;6286821;22;20069;-96
2022/03/15 13:07:04;;;;;;;25.73;18.30;;;9.70;99.90;;;;;;6287239;22;20018;-95
2022/03/15 13:09:30;;;;;;;28.35;17.75;;;9.80;99.90;;;;;;6287100;22;20017;-95
2022/03/15 13:11:56;;;;;;;22.20;14.98;;;9.80;99.90;;;;;;6287177;22;20407;-94
2022/03/15 13:14:31;;;;;;;24.60;15.25;;;9.90;99.90;;;;;;6286477;22;20102;-93
2022/03/15 13:17:03;;;;;;;22.33;13.82;;;9.90;99.90;;;;;;6287240;22;20447;-94
2022/03/15 13:19:31;;;;;;;23.13;14.55;;;10.00;99.90;;;;;;6288712;22;20054;-96
2022/03/15 13:22:02;;;;;;;18.30;10.93;;;10.10;99.90;;;;;;6318457;22;20019;-94
2022/03/15 13:27:04;;;;;;;14.25;9.63;;;10.20;99.90;;;;;;6368023;22;20022;-95
2022/03/15 13:29:36;;;;;;;19.92;10.13;;;10.30;99.90;;;;;;6349995;22;20030;-95
2022/03/15 13:32:04;;;;;;;18.38;9.88;;;10.30;99.90;;;;;;6377336;22;20022;-95
2022/03/15 13:37:07;;;;;;;17.17;10.43;;;10.40;99.90;;;;;;6424809;22;20042;-90
2022/03/15 13:45:12;;;;;;;14.68;8.30;;;10.70;99.90;;;;;;6284285;22;20097;-96
2022/03/15 13:50:13;;;;;;;17.10;9.48;;;10.80;99.90;;;;;;6380169;22;20022;-96
2022/03/15 13:52:39;;;;;;;14.30;8.33;;;10.80;99.90;;;;;;6352547;22;20415;-95
2022/03/15 13:55:10;;;;;;;13.53;7.53;;;10.80;99.90;;;;;;6352527;22;20735;-96
2022/03/15 13:57:44;;;;;;;15.38;8.00;;;10.80;99.90;;;;;;6351094;22;20419;-95
2022/03/15 14:00:13;;;;;;;13.52;6.43;;;10.80;99.90;;;;;;6352569;22;20014;-96
2022/03/15 14:02:41;;;;;;;16.17;7.93;;;10.80;99.90;;;;;;6354322;22;20018;-95
2022/03/15 14:05:10;;;;;;;16.20;8.40;;;10.80;99.90;;;;;;6355792;22;20290;-96
2022/03/15 14:07:36;;;;;;;14.05;8.07;;;10.80;99.90;;;;;;6356098;22;20029;-96
2022/03/15 14:10:16;;;;;;;17.27;8.77;;;10.80;99.90;;;;;;6358170;22;20022;-96
2022/03/15 14:12:42;;;;;;;14.45;8.90;;;10.70;99.90;;;;;;6357974;22;20018;-96
2022/03/15 14:15:11;;;;;;;13.45;8.10;;;10.80;99.90;;;;;;6354500;22;20071;-96
2022/03/15 14:17:47;;;;;;;15.35;7.35;;;10.80;99.90;;;;;;6357074;22;20028;-94
2022/03/15 14:20:15;;;;;;;13.20;6.50;;;10.70;99.90;;;;;;6358289;22;20443;-95
2022/03/15 14:22:53;;;;;;;14.30;7.22;;;10.70;99.90;;;;;;6357709;22;20110;-96
2022/03/15 14:25:30;;;;;;;17.27;7.65;;;10.70;99.90;;;;;;6362055;22;20017;-94
2022/03/15 14:28:01;;;;;;;15.18;7.93;;;10.70;99.90;;;;;;6332991;22;20017;-96
2022/03/15 14:30:27;;;;;;;16.05;7.85;;;10.60;99.90;;;;;;6379747;22;20014;-96
2022/03/15 14:49:37;;;;;;;18.75;9.82;;;10.70;99.90;;;;;;6410149;22;20028;-96